sensor_id;sensor_type;location;lat;lon;timestamp;P1;durP1;ratioP1;P2;durP2;ratioP2
33022;SDS011;19390;51.460;5.710;2023-04-30T00:02:07;18.60;;;11.65;;
33022;SDS011;19390;51.460;5.710;2023-04-30T00:04:33;20.23;;;12.55;;
33022;SDS011;19390;51.460;5.710;2023-04-30T00:06:59;20.33;;;12.13;;
33022;SDS011;19390;51.460;5.710;2023-04-30T00:09:25;19.40;;;12.65;;
33022;SDS011;19390;51.460;5.710;2023-04-30T00:11:50;19.85;;;12.60;;
33022;SDS011;19390;51.460;5.710;2023-04-30T00:14:16;18.55;;;12.43;;
33022;SDS011;19390;51.460;5.710;2023-04-30T00:16:41;25.27;;;13.82;;
33022;SDS011;19390;51.460;5.710;2023-04-30T00:19:07;18.13;;;12.43;;
33022;SDS011;19390;51.460;5.710;2023-04-30T00:21:33;20.85;;;13.35;;
33022;SDS011;19390;51.460;5.710;2023-04-30T00:23:58;21.92;;;13.95;;
33022;SDS011;19390;51.460;5.710;2023-04-30T00:26:27;22.40;;;14.82;;
33022;SDS011;19390;51.460;5.710;2023-04-30T00:28:52;22.48;;;14.85;;
33022;SDS011;19390;51.460;5.710;2023-04-30T00:31:18;19.50;;;11.55;;
33022;SDS011;19390;51.460;5.710;2023-04-30T00:33:43;19.00;;;13.73;;
33022;SDS011;19390;51.460;5.710;2023-04-30T00:36:09;21.40;;;14.38;;
33022;SDS011;19390;51.460;5.710;2023-04-30T00:38:34;23.67;;;15.00;;
33022;SDS011;19390;51.460;5.710;2023-04-30T00:41:00;20.92;;;13.05;;
33022;SDS011;19390;51.460;5.710;2023-04-30T00:43:26;22.75;;;13.15;;
33022;SDS011;19390;51.460;5.710;2023-04-30T00:45:51;20.00;;;14.20;;
33022;SDS011;19390;51.460;5.710;2023-04-30T00:48:17;21.15;;;14.25;;
33022;SDS011;19390;51.460;5.710;2023-04-30T00:50:43;20.70;;;13.30;;
33022;SDS011;19390;51.460;5.710;2023-04-30T00:53:09;26.85;;;15.82;;
33022;SDS011;19390;51.460;5.710;2023-04-30T00:55:35;23.38;;;15.45;;
33022;SDS011;19390;51.460;5.710;2023-04-30T00:58:01;25.15;;;15.63;;
33022;SDS011;19390;51.460;5.710;2023-04-30T01:00:27;22.80;;;15.85;;
33022;SDS011;19390;51.460;5.710;2023-04-30T01:02:54;23.48;;;15.32;;
33022;SDS011;19390;51.460;5.710;2023-04-30T01:05:20;21.30;;;14.73;;
33022;SDS011;19390;51.460;5.710;2023-04-30T01:07:47;21.67;;;15.65;;
33022;SDS011;19390;51.460;5.710;2023-04-30T01:10:13;23.88;;;15.70;;
33022;SDS011;19390;51.460;5.710;2023-04-30T01:12:54;21.70;;;16.00;;
33022;SDS011;19390;51.460;5.710;2023-04-30T01:18:11;26.20;;;15.38;;
33022;SDS011;19390;51.460;5.710;2023-04-30T01:20:43;20.38;;;13.75;;
33022;SDS011;19390;51.460;5.710;2023-04-30T01:23:54;21.38;;;14.90;;
33022;SDS011;19390;51.460;5.710;2023-04-30T01:29:37;25.08;;;15.45;;
33022;SDS011;19390;51.460;5.710;2023-04-30T01:32:05;27.15;;;17.25;;
33022;SDS011;19390;51.460;5.710;2023-04-30T01:34:31;23.73;;;15.55;;
33022;SDS011;19390;51.460;5.710;2023-04-30T01:45:21;25.50;;;16.00;;
33022;SDS011;19390;51.460;5.710;2023-04-30T01:47:56;25.85;;;17.52;;
33022;SDS011;19390;51.460;5.710;2023-04-30T01:50:49;24.73;;;16.92;;
33022;SDS011;19390;51.460;5.710;2023-04-30T01:53:20;25.98;;;16.65;;
33022;SDS011;19390;51.460;5.710;2023-04-30T01:55:49;25.25;;;16.75;;
33022;SDS011;19390;51.460;5.710;2023-04-30T01:58:28;28.30;;;18.73;;
33022;SDS011;19390;51.460;5.710;2023-04-30T02:00:55;30.05;;;19.52;;
33022;SDS011;19390;51.460;5.710;2023-04-30T02:03:21;26.77;;;19.42;;
33022;SDS011;19390;51.460;5.710;2023-04-30T02:05:47;30.45;;;20.48;;
33022;SDS011;19390;51.460;5.710;2023-04-30T02:08:13;30.83;;;19.67;;
33022;SDS011;19390;51.460;5.710;2023-04-30T02:10:39;29.70;;;20.35;;
33022;SDS011;19390;51.460;5.710;2023-04-30T02:13:05;26.80;;;18.90;;
33022;SDS011;19390;51.460;5.710;2023-04-30T02:15:30;31.67;;;19.42;;
33022;SDS011;19390;51.460;5.710;2023-04-30T02:17:56;27.25;;;18.83;;
33022;SDS011;19390;51.460;5.710;2023-04-30T02:20:22;30.52;;;19.58;;
33022;SDS011;19390;51.460;5.710;2023-04-30T02:22:47;29.17;;;19.30;;
33022;SDS011;19390;51.460;5.710;2023-04-30T02:25:13;31.48;;;19.27;;
33022;SDS011;19390;51.460;5.710;2023-04-30T02:27:39;28.42;;;19.23;;
33022;SDS011;19390;51.460;5.710;2023-04-30T02:30:04;29.35;;;19.45;;
33022;SDS011;19390;51.460;5.710;2023-04-30T02:32:31;30.60;;;19.55;;
33022;SDS011;19390;51.460;5.710;2023-04-30T02:34:56;25.98;;;17.13;;
33022;SDS011;19390;51.460;5.710;2023-04-30T02:37:22;31.25;;;20.30;;
33022;SDS011;19390;51.460;5.710;2023-04-30T02:39:48;35.03;;;20.10;;
33022;SDS011;19390;51.460;5.710;2023-04-30T02:42:13;28.65;;;19.98;;
33022;SDS011;19390;51.460;5.710;2023-04-30T02:44:39;32.58;;;20.42;;
33022;SDS011;19390;51.460;5.710;2023-04-30T02:47:05;28.30;;;17.60;;
33022;SDS011;19390;51.460;5.710;2023-04-30T02:49:30;26.23;;;18.30;;
33022;SDS011;19390;51.460;5.710;2023-04-30T02:51:56;32.38;;;20.83;;
33022;SDS011;19390;51.460;5.710;2023-04-30T02:54:21;27.38;;;19.05;;
33022;SDS011;19390;51.460;5.710;2023-04-30T02:56:47;33.13;;;22.80;;
33022;SDS011;19390;51.460;5.710;2023-04-30T02:59:12;32.53;;;20.60;;
33022;SDS011;19390;51.460;5.710;2023-04-30T03:01:38;28.50;;;19.08;;
33022;SDS011;19390;51.460;5.710;2023-04-30T03:04:04;28.95;;;19.98;;
33022;SDS011;19390;51.460;5.710;2023-04-30T03:06:30;31.42;;;21.38;;
33022;SDS011;19390;51.460;5.710;2023-04-30T03:08:56;30.85;;;20.70;;
33022;SDS011;19390;51.460;5.710;2023-04-30T03:11:22;30.63;;;20.98;;
33022;SDS011;19390;51.460;5.710;2023-04-30T03:13:48;26.55;;;20.20;;
33022;SDS011;19390;51.460;5.710;2023-04-30T03:16:15;38.28;;;24.27;;
33022;SDS011;19390;51.460;5.710;2023-04-30T03:18:42;32.05;;;22.08;;
33022;SDS011;19390;51.460;5.710;2023-04-30T03:21:08;32.58;;;20.27;;
33022;SDS011;19390;51.460;5.710;2023-04-30T03:23:33;28.33;;;18.02;;
33022;SDS011;19390;51.460;5.710;2023-04-30T03:25:59;34.00;;;22.58;;
33022;SDS011;19390;51.460;5.710;2023-04-30T03:28:25;38.72;;;23.13;;
33022;SDS011;19390;51.460;5.710;2023-04-30T03:30:51;27.92;;;21.55;;
33022;SDS011;19390;51.460;5.710;2023-04-30T03:33:16;33.97;;;23.70;;
33022;SDS011;19390;51.460;5.710;2023-04-30T03:35:42;28.52;;;19.52;;
33022;SDS011;19390;51.460;5.710;2023-04-30T03:38:07;29.95;;;20.02;;
33022;SDS011;19390;51.460;5.710;2023-04-30T03:40:33;28.48;;;20.13;;
33022;SDS011;19390;51.460;5.710;2023-04-30T03:42:59;37.70;;;23.75;;
33022;SDS011;19390;51.460;5.710;2023-04-30T03:45:24;36.50;;;23.52;;
33022;SDS011;19390;51.460;5.710;2023-04-30T03:47:50;31.80;;;20.88;;
33022;SDS011;19390;51.460;5.710;2023-04-30T03:50:16;33.17;;;21.95;;
33022;SDS011;19390;51.460;5.710;2023-04-30T03:52:42;37.67;;;23.92;;
33022;SDS011;19390;51.460;5.710;2023-04-30T03:55:09;28.13;;;18.92;;
33022;SDS011;19390;51.460;5.710;2023-04-30T03:57:34;36.83;;;23.67;;
33022;SDS011;19390;51.460;5.710;2023-04-30T04:00:00;38.53;;;23.73;;
33022;SDS011;19390;51.460;5.710;2023-04-30T04:02:30;38.05;;;24.98;;
33022;SDS011;19390;51.460;5.710;2023-04-30T04:04:56;44.65;;;28.17;;
33022;SDS011;19390;51.460;5.710;2023-04-30T04:07:21;38.25;;;26.45;;
33022;SDS011;19390;51.460;5.710;2023-04-30T04:09:47;43.50;;;27.92;;
33022;SDS011;19390;51.460;5.710;2023-04-30T04:12:13;47.05;;;29.27;;
33022;SDS011;19390;51.460;5.710;2023-04-30T04:14:38;46.72;;;28.75;;
33022;SDS011;19390;51.460;5.710;2023-04-30T04:17:04;42.20;;;27.98;;
33022;SDS011;19390;51.460;5.710;2023-04-30T04:19:30;45.72;;;29.65;;
33022;SDS011;19390;51.460;5.710;2023-04-30T04:21:55;35.45;;;24.75;;
33022;SDS011;19390;51.460;5.710;2023-04-30T04:24:23;46.33;;;28.55;;
33022;SDS011;19390;51.460;5.710;2023-04-30T04:26:51;39.38;;;27.48;;
33022;SDS011;19390;51.460;5.710;2023-04-30T04:29:17;38.67;;;26.63;;
33022;SDS011;19390;51.460;5.710;2023-04-30T04:31:43;43.65;;;28.67;;
33022;SDS011;19390;51.460;5.710;2023-04-30T04:34:09;38.33;;;27.73;;
33022;SDS011;19390;51.460;5.710;2023-04-30T04:36:34;40.40;;;27.38;;
33022;SDS011;19390;51.460;5.710;2023-04-30T04:39:00;36.72;;;26.27;;
33022;SDS011;19390;51.460;5.710;2023-04-30T04:41:29;41.08;;;25.77;;
33022;SDS011;19390;51.460;5.710;2023-04-30T04:43:59;32.72;;;23.08;;
33022;SDS011;19390;51.460;5.710;2023-04-30T04:46:29;38.58;;;25.40;;
33022;SDS011;19390;51.460;5.710;2023-04-30T04:48:55;39.88;;;28.05;;
33022;SDS011;19390;51.460;5.710;2023-04-30T04:51:21;35.08;;;23.92;;
33022;SDS011;19390;51.460;5.710;2023-04-30T04:53:47;33.75;;;23.15;;
33022;SDS011;19390;51.460;5.710;2023-04-30T04:56:13;41.80;;;27.73;;
33022;SDS011;19390;51.460;5.710;2023-04-30T04:58:38;40.03;;;27.00;;
33022;SDS011;19390;51.460;5.710;2023-04-30T05:01:05;33.80;;;24.75;;
33022;SDS011;19390;51.460;5.710;2023-04-30T05:03:31;35.35;;;26.88;;
33022;SDS011;19390;51.460;5.710;2023-04-30T05:05:57;36.08;;;23.65;;
33022;SDS011;19390;51.460;5.710;2023-04-30T05:08:23;31.95;;;21.92;;
33022;SDS011;19390;51.460;5.710;2023-04-30T05:10:49;31.40;;;23.33;;
33022;SDS011;19390;51.460;5.710;2023-04-30T05:13:15;34.10;;;23.42;;
33022;SDS011;19390;51.460;5.710;2023-04-30T05:15:40;34.50;;;24.65;;
33022;SDS011;19390;51.460;5.710;2023-04-30T05:18:06;36.50;;;25.40;;
33022;SDS011;19390;51.460;5.710;2023-04-30T05:20:31;35.28;;;23.15;;
33022;SDS011;19390;51.460;5.710;2023-04-30T05:22:57;27.17;;;19.33;;
33022;SDS011;19390;51.460;5.710;2023-04-30T05:25:23;24.20;;;17.80;;
33022;SDS011;19390;51.460;5.710;2023-04-30T05:27:48;20.63;;;15.63;;
33022;SDS011;19390;51.460;5.710;2023-04-30T05:30:14;21.85;;;13.95;;
33022;SDS011;19390;51.460;5.710;2023-04-30T05:32:40;15.70;;;12.00;;
33022;SDS011;19390;51.460;5.710;2023-04-30T05:35:06;15.90;;;12.15;;
33022;SDS011;19390;51.460;5.710;2023-04-30T05:37:32;16.02;;;12.55;;
33022;SDS011;19390;51.460;5.710;2023-04-30T05:39:57;16.60;;;12.95;;
33022;SDS011;19390;51.460;5.710;2023-04-30T05:42:23;13.65;;;11.23;;
33022;SDS011;19390;51.460;5.710;2023-04-30T05:44:49;14.88;;;11.57;;
33022;SDS011;19390;51.460;5.710;2023-04-30T05:47:14;12.63;;;11.10;;
33022;SDS011;19390;51.460;5.710;2023-04-30T05:49:40;13.43;;;11.00;;
33022;SDS011;19390;51.460;5.710;2023-04-30T05:52:05;16.15;;;11.07;;
33022;SDS011;19390;51.460;5.710;2023-04-30T05:54:31;12.05;;;9.60;;
33022;SDS011;19390;51.460;5.710;2023-04-30T05:56:57;13.82;;;10.40;;
33022;SDS011;19390;51.460;5.710;2023-04-30T05:59:23;12.30;;;9.32;;
33022;SDS011;19390;51.460;5.710;2023-04-30T06:01:48;11.32;;;9.15;;
33022;SDS011;19390;51.460;5.710;2023-04-30T06:04:14;11.27;;;8.85;;
33022;SDS011;19390;51.460;5.710;2023-04-30T06:06:40;12.20;;;9.00;;
33022;SDS011;19390;51.460;5.710;2023-04-30T06:09:06;13.10;;;8.50;;
33022;SDS011;19390;51.460;5.710;2023-04-30T06:11:31;10.00;;;8.48;;
33022;SDS011;19390;51.460;5.710;2023-04-30T06:13:57;11.10;;;8.75;;
33022;SDS011;19390;51.460;5.710;2023-04-30T06:16:23;10.77;;;8.48;;
33022;SDS011;19390;51.460;5.710;2023-04-30T06:18:48;11.05;;;8.32;;
33022;SDS011;19390;51.460;5.710;2023-04-30T06:21:14;10.23;;;7.65;;
33022;SDS011;19390;51.460;5.710;2023-04-30T06:23:40;9.23;;;8.00;;
33022;SDS011;19390;51.460;5.710;2023-04-30T06:26:05;18.52;;;9.05;;
33022;SDS011;19390;51.460;5.710;2023-04-30T06:28:31;9.98;;;7.95;;
33022;SDS011;19390;51.460;5.710;2023-04-30T06:30:56;10.02;;;8.07;;
33022;SDS011;19390;51.460;5.710;2023-04-30T06:33:22;11.07;;;8.93;;
33022;SDS011;19390;51.460;5.710;2023-04-30T06:35:48;15.18;;;8.45;;
33022;SDS011;19390;51.460;5.710;2023-04-30T06:38:19;11.57;;;8.07;;
33022;SDS011;19390;51.460;5.710;2023-04-30T06:40:44;9.57;;;8.32;;
33022;SDS011;19390;51.460;5.710;2023-04-30T06:43:10;10.40;;;8.73;;
33022;SDS011;19390;51.460;5.710;2023-04-30T06:45:36;11.48;;;8.40;;
33022;SDS011;19390;51.460;5.710;2023-04-30T06:48:02;13.50;;;8.93;;
33022;SDS011;19390;51.460;5.710;2023-04-30T06:50:28;13.45;;;9.52;;
33022;SDS011;19390;51.460;5.710;2023-04-30T06:52:53;11.70;;;8.85;;
33022;SDS011;19390;51.460;5.710;2023-04-30T06:55:19;9.13;;;7.75;;
33022;SDS011;19390;51.460;5.710;2023-04-30T06:57:44;11.70;;;8.63;;
33022;SDS011;19390;51.460;5.710;2023-04-30T07:00:10;10.65;;;8.63;;
33022;SDS011;19390;51.460;5.710;2023-04-30T07:02:36;10.18;;;8.85;;
33022;SDS011;19390;51.460;5.710;2023-04-30T07:05:02;11.88;;;8.48;;
33022;SDS011;19390;51.460;5.710;2023-04-30T07:07:28;11.23;;;8.60;;
33022;SDS011;19390;51.460;5.710;2023-04-30T07:09:53;14.00;;;8.13;;
33022;SDS011;19390;51.460;5.710;2023-04-30T07:12:19;10.80;;;8.30;;
33022;SDS011;19390;51.460;5.710;2023-04-30T07:14:46;11.73;;;8.68;;
33022;SDS011;19390;51.460;5.710;2023-04-30T07:17:12;9.73;;;7.68;;
33022;SDS011;19390;51.460;5.710;2023-04-30T07:19:37;9.13;;;8.07;;
33022;SDS011;19390;51.460;5.710;2023-04-30T07:22:03;10.65;;;7.88;;
33022;SDS011;19390;51.460;5.710;2023-04-30T07:24:28;9.70;;;8.13;;
33022;SDS011;19390;51.460;5.710;2023-04-30T07:26:54;11.90;;;7.93;;
33022;SDS011;19390;51.460;5.710;2023-04-30T07:29:19;9.90;;;8.40;;
33022;SDS011;19390;51.460;5.710;2023-04-30T07:31:45;10.32;;;8.30;;
33022;SDS011;19390;51.460;5.710;2023-04-30T07:34:10;9.43;;;7.95;;
33022;SDS011;19390;51.460;5.710;2023-04-30T07:36:37;10.00;;;7.97;;
33022;SDS011;19390;51.460;5.710;2023-04-30T07:39:03;10.95;;;8.65;;
33022;SDS011;19390;51.460;5.710;2023-04-30T07:41:29;11.38;;;8.30;;
33022;SDS011;19390;51.460;5.710;2023-04-30T07:43:55;9.73;;;8.20;;
33022;SDS011;19390;51.460;5.710;2023-04-30T07:46:21;10.90;;;7.72;;
33022;SDS011;19390;51.460;5.710;2023-04-30T07:48:48;10.75;;;7.80;;
33022;SDS011;19390;51.460;5.710;2023-04-30T07:51:14;11.70;;;7.93;;
33022;SDS011;19390;51.460;5.710;2023-04-30T07:53:40;9.25;;;8.25;;
33022;SDS011;19390;51.460;5.710;2023-04-30T07:56:06;10.05;;;8.13;;
33022;SDS011;19390;51.460;5.710;2023-04-30T07:58:32;9.80;;;8.20;;
33022;SDS011;19390;51.460;5.710;2023-04-30T08:00:57;12.23;;;7.50;;
33022;SDS011;19390;51.460;5.710;2023-04-30T08:03:23;8.75;;;7.85;;
33022;SDS011;19390;51.460;5.710;2023-04-30T08:05:49;8.13;;;7.10;;
33022;SDS011;19390;51.460;5.710;2023-04-30T08:08:14;8.68;;;7.45;;
33022;SDS011;19390;51.460;5.710;2023-04-30T08:10:40;7.82;;;7.03;;
33022;SDS011;19390;51.460;5.710;2023-04-30T08:13:06;10.50;;;7.45;;
33022;SDS011;19390;51.460;5.710;2023-04-30T08:15:34;8.15;;;6.97;;
33022;SDS011;19390;51.460;5.710;2023-04-30T08:18:01;9.00;;;7.10;;
33022;SDS011;19390;51.460;5.710;2023-04-30T08:20:27;13.23;;;8.07;;
33022;SDS011;19390;51.460;5.710;2023-04-30T08:22:53;9.48;;;7.63;;
33022;SDS011;19390;51.460;5.710;2023-04-30T08:25:19;11.85;;;7.68;;
33022;SDS011;19390;51.460;5.710;2023-04-30T08:27:44;10.82;;;7.97;;
33022;SDS011;19390;51.460;5.710;2023-04-30T08:30:10;9.02;;;7.40;;
33022;SDS011;19390;51.460;5.710;2023-04-30T08:32:36;9.98;;;7.75;;
33022;SDS011;19390;51.460;5.710;2023-04-30T08:35:03;8.45;;;6.28;;
33022;SDS011;19390;51.460;5.710;2023-04-30T08:37:29;8.55;;;7.13;;
33022;SDS011;19390;51.460;5.710;2023-04-30T08:39:54;7.78;;;6.95;;
33022;SDS011;19390;51.460;5.710;2023-04-30T08:42:20;7.97;;;6.65;;
33022;SDS011;19390;51.460;5.710;2023-04-30T08:44:50;8.30;;;6.95;;
33022;SDS011;19390;51.460;5.710;2023-04-30T08:47:16;7.80;;;6.80;;
33022;SDS011;19390;51.460;5.710;2023-04-30T08:49:42;13.25;;;6.75;;
33022;SDS011;19390;51.460;5.710;2023-04-30T08:52:08;8.55;;;6.72;;
33022;SDS011;19390;51.460;5.710;2023-04-30T08:54:35;8.45;;;6.85;;
33022;SDS011;19390;51.460;5.710;2023-04-30T08:57:01;8.73;;;7.53;;
33022;SDS011;19390;51.460;5.710;2023-04-30T08:59:28;8.48;;;7.25;;
33022;SDS011;19390;51.460;5.710;2023-04-30T09:01:54;7.70;;;6.50;;
33022;SDS011;19390;51.460;5.710;2023-04-30T09:04:20;7.43;;;6.63;;
33022;SDS011;19390;51.460;5.710;2023-04-30T09:06:46;7.75;;;6.80;;
33022;SDS011;19390;51.460;5.710;2023-04-30T09:09:12;9.98;;;7.13;;
33022;SDS011;19390;51.460;5.710;2023-04-30T09:11:39;8.65;;;6.65;;
33022;SDS011;19390;51.460;5.710;2023-04-30T09:14:06;6.68;;;6.05;;
33022;SDS011;19390;51.460;5.710;2023-04-30T09:16:45;6.85;;;5.72;;
33022;SDS011;19390;51.460;5.710;2023-04-30T09:19:22;6.45;;;5.50;;
33022;SDS011;19390;51.460;5.710;2023-04-30T09:21:48;7.28;;;6.57;;
33022;SDS011;19390;51.460;5.710;2023-04-30T09:24:14;7.70;;;6.90;;
33022;SDS011;19390;51.460;5.710;2023-04-30T09:26:39;7.65;;;6.32;;
33022;SDS011;19390;51.460;5.710;2023-04-30T09:29:05;7.65;;;5.63;;
33022;SDS011;19390;51.460;5.710;2023-04-30T09:31:37;7.68;;;5.88;;
33022;SDS011;19390;51.460;5.710;2023-04-30T09:34:04;6.65;;;5.53;;
33022;SDS011;19390;51.460;5.710;2023-04-30T09:36:30;6.95;;;5.50;;
33022;SDS011;19390;51.460;5.710;2023-04-30T09:39:06;6.05;;;5.05;;
33022;SDS011;19390;51.460;5.710;2023-04-30T09:41:41;4.78;;;4.28;;
33022;SDS011;19390;51.460;5.710;2023-04-30T09:44:07;6.57;;;4.75;;
33022;SDS011;19390;51.460;5.710;2023-04-30T09:46:33;8.27;;;5.60;;
33022;SDS011;19390;51.460;5.710;2023-04-30T09:49:02;8.30;;;5.18;;
33022;SDS011;19390;51.460;5.710;2023-04-30T09:51:30;7.30;;;5.90;;
33022;SDS011;19390;51.460;5.710;2023-04-30T09:53:56;7.25;;;5.10;;
33022;SDS011;19390;51.460;5.710;2023-04-30T09:56:23;6.97;;;4.63;;
33022;SDS011;19390;51.460;5.710;2023-04-30T09:58:53;3.75;;;3.38;;
33022;SDS011;19390;51.460;5.710;2023-04-30T10:01:20;5.65;;;4.90;;
33022;SDS011;19390;51.460;5.710;2023-04-30T10:03:50;5.38;;;4.05;;
33022;SDS011;19390;51.460;5.710;2023-04-30T10:06:16;6.88;;;3.90;;
33022;SDS011;19390;51.460;5.710;2023-04-30T10:08:48;5.22;;;3.60;;
33022;SDS011;19390;51.460;5.710;2023-04-30T10:11:18;4.82;;;3.70;;
33022;SDS011;19390;51.460;5.710;2023-04-30T10:13:52;4.70;;;3.92;;
33022;SDS011;19390;51.460;5.710;2023-04-30T10:19:00;5.72;;;4.93;;
33022;SDS011;19390;51.460;5.710;2023-04-30T10:21:30;4.78;;;4.38;;
33022;SDS011;19390;51.460;5.710;2023-04-30T10:23:57;5.28;;;4.85;;
33022;SDS011;19390;51.460;5.710;2023-04-30T10:26:23;8.52;;;5.55;;
33022;SDS011;19390;51.460;5.710;2023-04-30T10:28:49;5.80;;;5.25;;
33022;SDS011;19390;51.460;5.710;2023-04-30T10:31:17;7.55;;;4.30;;
33022;SDS011;19390;51.460;5.710;2023-04-30T10:33:56;4.82;;;4.18;;
33022;SDS011;19390;51.460;5.710;2023-04-30T10:36:42;5.15;;;3.70;;
33022;SDS011;19390;51.460;5.710;2023-04-30T10:39:18;4.00;;;3.60;;
33022;SDS011;19390;51.460;5.710;2023-04-30T10:41:48;5.03;;;4.03;;
33022;SDS011;19390;51.460;5.710;2023-04-30T10:44:14;6.00;;;4.80;;
33022;SDS011;19390;51.460;5.710;2023-04-30T10:46:40;4.57;;;3.88;;
33022;SDS011;19390;51.460;5.710;2023-04-30T10:49:06;6.65;;;4.00;;
33022;SDS011;19390;51.460;5.710;2023-04-30T10:51:45;4.53;;;4.13;;
33022;SDS011;19390;51.460;5.710;2023-04-30T10:54:13;4.85;;;4.35;;
33022;SDS011;19390;51.460;5.710;2023-04-30T10:56:41;4.53;;;4.00;;
33022;SDS011;19390;51.460;5.710;2023-04-30T10:59:10;3.25;;;2.95;;
33022;SDS011;19390;51.460;5.710;2023-04-30T11:04:22;4.47;;;2.88;;
33022;SDS011;19390;51.460;5.710;2023-04-30T11:09:39;3.90;;;3.00;;
33022;SDS011;19390;51.460;5.710;2023-04-30T11:12:18;2.80;;;2.50;;
33022;SDS011;19390;51.460;5.710;2023-04-30T11:14:52;4.15;;;3.85;;
33022;SDS011;19390;51.460;5.710;2023-04-30T11:17:26;2.90;;;2.70;;
33022;SDS011;19390;51.460;5.710;2023-04-30T11:19:52;3.28;;;2.38;;
33022;SDS011;19390;51.460;5.710;2023-04-30T11:22:23;2.72;;;2.45;;
33022;SDS011;19390;51.460;5.710;2023-04-30T11:24:53;3.08;;;2.88;;
33022;SDS011;19390;51.460;5.710;2023-04-30T11:27:29;2.80;;;2.60;;
33022;SDS011;19390;51.460;5.710;2023-04-30T11:29:58;2.78;;;2.58;;
33022;SDS011;19390;51.460;5.710;2023-04-30T11:32:31;2.67;;;2.47;;
33022;SDS011;19390;51.460;5.710;2023-04-30T11:34:59;2.90;;;2.67;;
33022;SDS011;19390;51.460;5.710;2023-04-30T11:37:30;3.00;;;1.98;;
33022;SDS011;19390;51.460;5.710;2023-04-30T11:39:56;3.17;;;2.65;;
33022;SDS011;19390;51.460;5.710;2023-04-30T11:42:35;2.95;;;2.63;;
33022;SDS011;19390;51.460;5.710;2023-04-30T11:47:37;3.67;;;2.83;;
33022;SDS011;19390;51.460;5.710;2023-04-30T11:50:08;3.92;;;3.05;;
33022;SDS011;19390;51.460;5.710;2023-04-30T11:52:38;2.70;;;2.42;;
33022;SDS011;19390;51.460;5.710;2023-04-30T11:55:18;3.05;;;2.75;;
33022;SDS011;19390;51.460;5.710;2023-04-30T11:57:45;4.97;;;3.22;;
33022;SDS011;19390;51.460;5.710;2023-04-30T12:00:14;4.20;;;3.03;;
33022;SDS011;19390;51.460;5.710;2023-04-30T12:02:47;4.10;;;3.67;;
33022;SDS011;19390;51.460;5.710;2023-04-30T12:05:14;3.20;;;2.90;;
33022;SDS011;19390;51.460;5.710;2023-04-30T12:07:47;3.45;;;3.13;;
33022;SDS011;19390;51.460;5.710;2023-04-30T12:10:14;3.60;;;3.30;;
33022;SDS011;19390;51.460;5.710;2023-04-30T12:12:43;3.03;;;2.83;;
33022;SDS011;19390;51.460;5.710;2023-04-30T12:15:10;3.03;;;2.78;;
33022;SDS011;19390;51.460;5.710;2023-04-30T12:17:37;3.00;;;2.70;;
33022;SDS011;19390;51.460;5.710;2023-04-30T12:20:02;2.95;;;2.60;;
33022;SDS011;19390;51.460;5.710;2023-04-30T12:22:29;2.92;;;2.42;;
33022;SDS011;19390;51.460;5.710;2023-04-30T12:24:54;4.72;;;3.33;;
33022;SDS011;19390;51.460;5.710;2023-04-30T12:27:23;3.53;;;3.17;;
33022;SDS011;19390;51.460;5.710;2023-04-30T12:29:48;3.78;;;2.97;;
33022;SDS011;19390;51.460;5.710;2023-04-30T12:32:18;4.65;;;3.05;;
33022;SDS011;19390;51.460;5.710;2023-04-30T12:34:45;3.25;;;2.90;;
33022;SDS011;19390;51.460;5.710;2023-04-30T12:37:13;2.78;;;2.20;;
33022;SDS011;19390;51.460;5.710;2023-04-30T12:39:40;3.83;;;2.80;;
33022;SDS011;19390;51.460;5.710;2023-04-30T12:42:06;2.90;;;2.70;;
33022;SDS011;19390;51.460;5.710;2023-04-30T12:44:32;3.20;;;2.90;;
33022;SDS011;19390;51.460;5.710;2023-04-30T12:47:08;2.90;;;2.60;;
33022;SDS011;19390;51.460;5.710;2023-04-30T12:49:34;2.67;;;2.30;;
33022;SDS011;19390;51.460;5.710;2023-04-30T12:52:04;3.15;;;2.80;;
33022;SDS011;19390;51.460;5.710;2023-04-30T12:54:33;3.70;;;2.90;;
33022;SDS011;19390;51.460;5.710;2023-04-30T12:59:29;3.53;;;2.80;;
33022;SDS011;19390;51.460;5.710;2023-04-30T13:02:09;3.22;;;2.78;;
33022;SDS011;19390;51.460;5.710;2023-04-30T13:04:35;2.22;;;2.03;;
33022;SDS011;19390;51.460;5.710;2023-04-30T13:07:01;2.50;;;2.00;;
33022;SDS011;19390;51.460;5.710;2023-04-30T13:09:27;2.17;;;1.92;;
33022;SDS011;19390;51.460;5.710;2023-04-30T13:11:53;3.10;;;1.80;;
33022;SDS011;19390;51.460;5.710;2023-04-30T13:14:19;2.75;;;2.28;;
33022;SDS011;19390;51.460;5.710;2023-04-30T13:16:44;2.78;;;1.98;;
33022;SDS011;19390;51.460;5.710;2023-04-30T13:19:10;3.15;;;1.50;;
33022;SDS011;19390;51.460;5.710;2023-04-30T13:21:36;2.50;;;2.05;;
33022;SDS011;19390;51.460;5.710;2023-04-30T13:24:02;2.45;;;2.25;;
33022;SDS011;19390;51.460;5.710;2023-04-30T13:26:27;3.50;;;2.70;;
33022;SDS011;19390;51.460;5.710;2023-04-30T13:28:53;6.97;;;5.35;;
33022;SDS011;19390;51.460;5.710;2023-04-30T13:31:19;3.83;;;3.10;;
33022;SDS011;19390;51.460;5.710;2023-04-30T13:33:46;3.00;;;2.40;;
33022;SDS011;19390;51.460;5.710;2023-04-30T13:36:12;2.30;;;2.10;;
33022;SDS011;19390;51.460;5.710;2023-04-30T13:38:37;3.33;;;1.88;;
33022;SDS011;19390;51.460;5.710;2023-04-30T13:41:03;2.45;;;2.00;;
33022;SDS011;19390;51.460;5.710;2023-04-30T13:43:29;2.67;;;2.15;;
33022;SDS011;19390;51.460;5.710;2023-04-30T13:45:55;2.63;;;2.17;;
33022;SDS011;19390;51.460;5.710;2023-04-30T13:48:22;2.60;;;2.10;;
33022;SDS011;19390;51.460;5.710;2023-04-30T13:50:48;7.25;;;5.60;;
33022;SDS011;19390;51.460;5.710;2023-04-30T13:53:15;3.90;;;2.85;;
33022;SDS011;19390;51.460;5.710;2023-04-30T13:55:41;3.00;;;2.40;;
33022;SDS011;19390;51.460;5.710;2023-04-30T13:58:07;3.30;;;2.05;;
33022;SDS011;19390;51.460;5.710;2023-04-30T14:00:32;2.35;;;1.70;;
33022;SDS011;19390;51.460;5.710;2023-04-30T14:02:58;3.75;;;2.70;;
33022;SDS011;19390;51.460;5.710;2023-04-30T14:05:24;1.88;;;1.60;;
33022;SDS011;19390;51.460;5.710;2023-04-30T14:07:49;2.70;;;1.90;;
33022;SDS011;19390;51.460;5.710;2023-04-30T14:10:15;2.47;;;1.50;;
33022;SDS011;19390;51.460;5.710;2023-04-30T14:12:40;1.83;;;1.45;;
33022;SDS011;19390;51.460;5.710;2023-04-30T14:15:06;2.28;;;1.65;;
33022;SDS011;19390;51.460;5.710;2023-04-30T14:17:32;3.05;;;2.35;;
33022;SDS011;19390;51.460;5.710;2023-04-30T14:19:58;2.85;;;2.10;;
33022;SDS011;19390;51.460;5.710;2023-04-30T14:22:24;3.35;;;2.25;;
33022;SDS011;19390;51.460;5.710;2023-04-30T14:24:51;2.78;;;1.83;;
33022;SDS011;19390;51.460;5.710;2023-04-30T14:27:17;3.28;;;1.77;;
33022;SDS011;19390;51.460;5.710;2023-04-30T14:29:42;3.65;;;1.90;;
33022;SDS011;19390;51.460;5.710;2023-04-30T14:32:08;2.75;;;2.28;;
33022;SDS011;19390;51.460;5.710;2023-04-30T14:34:33;2.50;;;1.80;;
33022;SDS011;19390;51.460;5.710;2023-04-30T14:37:01;1.40;;;1.30;;
33022;SDS011;19390;51.460;5.710;2023-04-30T14:39:27;3.75;;;2.08;;
33022;SDS011;19390;51.460;5.710;2023-04-30T14:41:52;10.20;;;2.08;;
33022;SDS011;19390;51.460;5.710;2023-04-30T14:44:18;3.40;;;1.65;;
33022;SDS011;19390;51.460;5.710;2023-04-30T14:46:45;3.20;;;1.95;;
33022;SDS011;19390;51.460;5.710;2023-04-30T14:49:11;1.85;;;1.70;;
33022;SDS011;19390;51.460;5.710;2023-04-30T14:51:36;2.25;;;1.48;;
33022;SDS011;19390;51.460;5.710;2023-04-30T14:54:02;2.85;;;2.03;;
33022;SDS011;19390;51.460;5.710;2023-04-30T14:56:28;2.60;;;2.10;;
33022;SDS011;19390;51.460;5.710;2023-04-30T14:58:53;2.85;;;1.90;;
33022;SDS011;19390;51.460;5.710;2023-04-30T15:01:19;3.10;;;1.80;;
33022;SDS011;19390;51.460;5.710;2023-04-30T15:03:44;2.17;;;1.40;;